createdAt,value
2022-09-02T00:01:31.473Z,99542.28
2022-09-02T00:04:36.406Z,99541.66
2022-09-02T00:07:42.913Z,99540.63
2022-09-02T00:10:48.429Z,99541.25
2022-09-02T00:13:53.758Z,99541.66
2022-09-02T00:17:00.904Z,99540.50
2022-09-02T00:20:06.841Z,99547.66
2022-09-02T00:23:13.900Z,99542.00
2022-09-02T00:26:19.614Z,99539.16
2022-09-02T00:29:25.166Z,99544.03
2022-09-02T00:32:30.797Z,99539.50
2022-09-02T00:35:36.021Z,99541.84
2022-09-02T00:38:43.177Z,99544.69
2022-09-02T00:41:48.715Z,99540.19
2022-09-02T00:44:54.185Z,99536.72
2022-09-02T00:47:59.456Z,99541.41
2022-09-02T00:51:04.575Z,99541.41
2022-09-02T00:54:14.496Z,99543.06
2022-09-02T00:57:22.239Z,99543.41
2022-09-02T01:00:31.265Z,99540.28
2022-09-02T01:03:41.178Z,99543.16
2022-09-02T01:06:46.723Z,99535.78
2022-09-02T01:09:55.314Z,99540.09
2022-09-02T01:13:01.789Z,99539.28
2022-09-02T01:16:11.858Z,99540.09
2022-09-02T01:19:24.001Z,99547.81
2022-09-02T01:22:31.873Z,99548.81
2022-09-02T01:25:37.029Z,99547.81
2022-09-02T01:28:42.086Z,99548.16
2022-09-02T01:31:47.858Z,99542.72
2022-09-02T01:34:53.694Z,99548.94
2022-09-02T01:38:01.620Z,99539.69
2022-09-02T01:41:07.208Z,99541.50
2022-09-02T01:44:16.288Z,99533.09
2022-09-02T01:47:23.131Z,99538.41
2022-09-02T01:50:28.769Z,99533.09
2022-09-02T01:53:36.128Z,99531.44
2022-09-02T01:56:41.170Z,99539.69
2022-09-02T01:59:46.423Z,99535.03
2022-09-02T02:02:51.897Z,99533.81
2022-09-02T02:05:56.880Z,99526.66
2022-09-02T02:09:03.513Z,99528.31
2022-09-02T02:12:08.897Z,99519.34
2022-09-02T02:15:15.742Z,99526.97
2022-09-02T02:18:20.984Z,99519.44
2022-09-02T02:21:27.432Z,99524.75
2022-09-02T02:24:33.914Z,99517.44
2022-09-02T02:27:39.180Z,99516.63
2022-09-02T02:30:48.660Z,99518.28
2022-09-02T02:33:54.327Z,99518.91
2022-09-02T02:36:59.656Z,99516.72
2022-09-02T02:40:07.727Z,99520.13
2022-09-02T02:43:13.384Z,99515.75
2022-09-02T02:46:19.289Z,99515.03
2022-09-02T02:49:24.405Z,99513.47
2022-09-02T02:52:29.404Z,99503.31
2022-09-02T02:55:36.503Z,99503.91
2022-09-02T02:58:42.250Z,99507.88
2022-09-02T03:01:47.359Z,99510.81
2022-09-02T03:04:54.333Z,99508.16
2022-09-02T03:07:59.607Z,99512.09
2022-09-02T03:11:07.208Z,99516.56
2022-09-02T03:14:13.413Z,99514.22
2022-09-02T03:17:19.035Z,99505.94
2022-09-02T03:20:25.216Z,99506.41
2022-09-02T03:23:30.841Z,99511.72
2022-09-02T03:26:37.488Z,99512.38
2022-09-02T03:29:42.809Z,99514.66
2022-09-02T03:32:49.017Z,99516.69
2022-09-02T03:35:54.536Z,99512.00
2022-09-02T03:38:59.641Z,99516.06
2022-09-02T03:42:06.922Z,99519.63
2022-09-02T03:45:20.852Z,99516.78
2022-09-02T03:48:26.176Z,99521.06
2022-09-02T03:51:31.840Z,99521.53
2022-09-02T03:54:37.120Z,99518.53
2022-09-02T03:57:43.931Z,99523.03
2022-09-02T04:00:51.473Z,99520.53
2022-09-02T04:03:57.664Z,99529.53
2022-09-02T04:07:02.862Z,99525.88
2022-09-02T04:10:09.024Z,99522.38
2022-09-02T04:13:15.610Z,99522.56
2022-09-02T04:16:22.762Z,99529.53
2022-09-02T04:19:28.282Z,99522.09
2022-09-02T04:22:34.304Z,99526.50
2022-09-02T04:25:40.793Z,99531.72
2022-09-02T04:28:47.541Z,99524.38
2022-09-02T04:31:52.935Z,99528.03
2022-09-02T04:34:58.339Z,99531.72
2022-09-02T04:38:03.303Z,99521.06
2022-09-02T04:41:09.319Z,99522.78
2022-09-02T04:44:16.325Z,99531.81
2022-09-02T04:47:22.598Z,99529.25
2022-09-02T04:50:27.913Z,99533.50
2022-09-02T04:53:33.038Z,99532.50
2022-09-02T04:56:41.569Z,99524.91
2022-09-02T04:59:48.208Z,99522.44
2022-09-02T05:02:54.982Z,99519.72
2022-09-02T05:06:01.370Z,99531.50
2022-09-02T05:09:06.212Z,99525.13
2022-09-02T05:12:11.685Z,99525.69
2022-09-02T05:15:18.713Z,99521.31
2022-09-02T05:18:23.992Z,99520.38
2022-09-02T05:21:29.219Z,99538.94
2022-09-02T05:24:34.939Z,99535.94
2022-09-02T05:27:40.443Z,99533.34
2022-09-02T05:30:47.085Z,99527.22
2022-09-02T05:33:52.542Z,99528.50
2022-09-02T05:36:58.125Z,99526.84
2022-09-02T05:40:04.316Z,99522.72
2022-09-02T05:43:10.705Z,99526.69
2022-09-02T05:46:18.776Z,99527.69
2022-09-02T05:49:24.208Z,99533.06
2022-09-02T05:52:30.101Z,99529.34
2022-09-02T05:55:35.616Z,99531.00
2022-09-02T05:58:41.278Z,99531.41
2022-09-02T06:01:48.699Z,99535.91
2022-09-02T06:04:55.258Z,99540.03
2022-09-02T06:08:00.777Z,99544.59
2022-09-02T06:11:08.727Z,99532.63
2022-09-02T06:14:14.587Z,99537.38
2022-09-02T06:17:22.294Z,99549.47
2022-09-02T06:20:29.300Z,99554.84
2022-09-02T06:23:35.745Z,99554.84
2022-09-02T06:26:41.404Z,99560.63
2022-09-02T06:29:46.622Z,99565.22
2022-09-02T06:32:53.010Z,99567.25
2022-09-02T06:35:58.393Z,99566.44
2022-09-02T06:39:03.826Z,99564.78
2022-09-02T06:42:09.174Z,99574.66
2022-09-02T06:45:14.780Z,99578.38
2022-09-02T06:48:21.207Z,99583.91
2022-09-02T06:51:27.350Z,99587.63
2022-09-02T06:54:32.501Z,99591.16
2022-09-02T06:57:38.295Z,99587.22
2022-09-02T07:00:43.725Z,99590.25
2022-09-02T07:04:08.058Z,99581.97
2022-09-02T07:07:13.737Z,99578.03
2022-09-02T07:10:19.252Z,99581.44
2022-09-02T07:13:24.742Z,99577.56
2022-09-02T07:16:30.807Z,99586.59
2022-09-02T07:19:37.749Z,99577.28
2022-09-02T07:22:43.274Z,99581.97
2022-09-02T07:25:48.711Z,99588.16
2022-09-02T07:28:54.233Z,99571.06
2022-09-02T07:31:59.619Z,99589.53
2022-09-02T07:35:07.241Z,99583.06
2022-09-02T07:38:13.138Z,99576.63
2022-09-02T07:41:18.817Z,99590.34
2022-09-02T07:44:24.981Z,99584.81
2022-09-02T07:47:30.953Z,99599.56
2022-09-02T07:50:38.990Z,99580.50
2022-09-02T07:53:45.168Z,99573.94
2022-09-02T07:56:51.101Z,99583.75
2022-09-02T07:59:56.333Z,99589.09
2022-09-02T08:03:02.109Z,99584.69
2022-09-02T08:06:08.872Z,99600.16
2022-09-02T08:09:14.956Z,99587.47
2022-09-02T08:12:22.337Z,99588.16
2022-09-02T08:15:28.836Z,99580.34
2022-09-02T08:18:35.025Z,99603.47
2022-09-02T08:21:41.578Z,99594.47
2022-09-02T08:24:47.048Z,99604.53
2022-09-02T08:31:00.955Z,99605.88
2022-09-02T08:34:06.746Z,99600.56
2022-09-02T08:37:13.452Z,99593.13
2022-09-02T08:40:19.586Z,99595.22
2022-09-02T08:43:29.261Z,99590.25
2022-09-02T08:46:36.067Z,99579.91
2022-09-02T08:49:43.198Z,99582.22
2022-09-02T08:52:58.638Z,99564.81
2022-09-02T08:56:06.001Z,99571.97
2022-09-02T08:59:13.133Z,99561.66
2022-09-02T09:02:22.661Z,99572.13
2022-09-02T09:05:32.280Z,99577.09
2022-09-02T09:08:44.776Z,99562.03
2022-09-02T09:11:55.852Z,99569.97
2022-09-02T09:15:06.095Z,99572.03
2022-09-02T09:18:15.074Z,99574.56
2022-09-02T09:21:20.524Z,99581.22
2022-09-02T09:24:29.372Z,99577.34
2022-09-02T09:27:34.827Z,99576.03
2022-09-02T09:30:40.373Z,99578.72
2022-09-02T09:34:00.844Z,99574.03
2022-09-02T09:37:06.048Z,99580.94
2022-09-02T09:40:30.605Z,99573.22
2022-09-02T09:43:35.777Z,99567.41
2022-09-02T09:46:41.067Z,99559.69
2022-09-02T09:49:46.344Z,99555.66
2022-09-02T09:52:51.495Z,99556.44
2022-09-02T09:55:59.277Z,99561.09
2022-09-02T09:59:04.599Z,99558.84
2022-09-02T10:02:20.209Z,99556.88
2022-09-02T10:05:30.975Z,99543.47
2022-09-02T10:08:36.379Z,99536.69
2022-09-02T10:11:55.944Z,99525.78
2022-09-02T10:15:00.843Z,99504.06
2022-09-02T10:18:15.470Z,99505.38
2022-09-02T10:21:29.294Z,99498.19
2022-09-02T10:24:42.887Z,99487.19
2022-09-02T10:27:54.188Z,99503.66
2022-09-02T10:31:05.757Z,99490.91
2022-09-02T10:34:17.292Z,99491.63
2022-09-02T10:37:24.393Z,99496.03
2022-09-02T10:40:37.689Z,99505.84
2022-09-02T10:43:57.359Z,99504.50
2022-09-02T10:47:04.894Z,99504.34
2022-09-02T10:50:15.111Z,99503.38
2022-09-02T10:53:34.284Z,99506.53
2022-09-02T10:56:41.564Z,99503.03
2022-09-02T10:59:54.005Z,99499.50
2022-09-02T11:03:06.711Z,99502.06
2022-09-02T11:06:16.050Z,99511.53
2022-09-02T11:09:28.516Z,99518.19
2022-09-02T11:12:36.105Z,99527.41
2022-09-02T11:15:47.616Z,99534.00
2022-09-02T11:18:58.100Z,99533.06
2022-09-02T11:22:10.610Z,99523.41
2022-09-02T11:25:17.304Z,99520.06
2022-09-02T11:28:26.985Z,99520.78
2022-09-02T11:31:39.098Z,99516.75
2022-09-02T11:34:47.174Z,99525.50
2022-09-02T11:37:53.758Z,99523.53
2022-09-02T11:41:37.179Z,99513.47
2022-09-02T11:45:00.887Z,99507.91
2022-09-02T11:48:30.381Z,99505.44
2022-09-02T11:51:43.902Z,99494.72
2022-09-02T11:54:50.375Z,99509.56
2022-09-02T11:57:57.706Z,99507.97
2022-09-02T12:01:19.083Z,99514.50
2022-09-02T12:07:56.764Z,99484.88
2022-09-02T12:11:04.898Z,99503.41
2022-09-02T12:14:13.835Z,99483.03
2022-09-02T12:17:37.886Z,99479.97
2022-09-02T12:21:07.807Z,99473.78
2022-09-02T12:24:25.168Z,99472.94
2022-09-02T12:27:36.766Z,99480.75
2022-09-02T12:31:01.725Z,99472.94
2022-09-02T12:34:34.024Z,99487.34
2022-09-02T12:37:56.052Z,99487.75
2022-09-02T12:41:13.517Z,99495.19
2022-09-02T12:44:30.504Z,99495.16
2022-09-02T12:47:45.213Z,99492.69
2022-09-02T12:50:56.055Z,99497.84
2022-09-02T12:54:02.725Z,99481.59
2022-09-02T12:57:10.216Z,99472.13
2022-09-02T13:00:17.083Z,99455.00
2022-09-02T13:03:34.973Z,99458.53
2022-09-02T13:06:47.325Z,99449.06
2022-09-02T13:10:07.794Z,99451.09
2022-09-02T13:13:30.713Z,99460.41
2022-09-02T13:16:46.094Z,99446.59
2022-09-02T13:20:06.070Z,99447.84
2022-09-02T13:23:31.735Z,99438.56
2022-09-02T13:26:52.285Z,99426.63
2022-09-02T13:30:08.656Z,99424.34
2022-09-02T13:33:15.282Z,99425.16
2022-09-02T13:36:25.429Z,99418.13
2022-09-02T13:39:31.119Z,99425.16
2022-09-02T13:42:37.316Z,99420.63
2022-09-02T13:45:43.100Z,99420.84
2022-09-02T13:48:49.609Z,99417.00
2022-09-02T13:51:56.671Z,99407.50
2022-09-02T13:55:01.882Z,99421.72
2022-09-02T13:58:08.895Z,99434.69
2022-09-02T14:01:29.009Z,99431.19
2022-09-02T14:04:36.468Z,99445.56
2022-09-02T14:07:43.277Z,99437.94
2022-09-02T14:10:49.361Z,99436.69
2022-09-02T14:13:54.866Z,99418.59
2022-09-02T14:17:14.973Z,99418.13
2022-09-02T14:20:23.390Z,99416.88
2022-09-02T14:23:29.831Z,99417.25
2022-09-02T14:26:37.676Z,99418.06
2022-09-02T14:29:45.328Z,99415.38
2022-09-02T14:32:50.777Z,99427.44
2022-09-02T14:35:58.328Z,99435.63
2022-09-02T14:39:12.324Z,99443.69
2022-09-02T14:42:17.557Z,99440.53
2022-09-02T14:45:27.497Z,99459.44
2022-09-02T14:48:37.323Z,99456.13
2022-09-02T14:51:46.870Z,99471.16
2022-09-02T14:54:52.937Z,99463.59
2022-09-02T14:58:02.578Z,99435.44
2022-09-02T15:01:09.674Z,99431.13
2022-09-02T15:04:15.795Z,99445.13
2022-09-02T15:07:22.686Z,99454.41
2022-09-02T15:10:28.015Z,99459.03
2022-09-02T15:13:34.954Z,99470.53
2022-09-02T15:16:40.758Z,99489.72
2022-09-02T15:19:46.041Z,99477.88
2022-09-02T15:22:53.317Z,99473.91
2022-09-02T15:25:58.873Z,99452.50
2022-09-02T15:29:04.517Z,99431.63
2022-09-02T15:32:09.765Z,99428.97
2022-09-02T15:35:15.136Z,99429.56
2022-09-02T15:38:21.708Z,99424.66
2022-09-02T15:41:28.963Z,99419.53
2022-09-02T15:44:34.505Z,99421.34
2022-09-02T15:47:39.791Z,99443.47
2022-09-02T15:50:46.492Z,99454.94
2022-09-02T15:53:56.811Z,99449.41
2022-09-02T15:57:02.066Z,99454.09
2022-09-02T16:00:09.676Z,99471.56
2022-09-02T16:03:53.919Z,99470.41
2022-09-02T16:07:04.207Z,99468.22
2022-09-02T16:10:11.690Z,99488.13
2022-09-02T16:13:16.700Z,99498.56
2022-09-02T16:16:22.696Z,99510.81
2022-09-02T16:19:30.343Z,99507.38
2022-09-02T16:22:36.421Z,99493.53
2022-09-02T16:25:45.470Z,99486.94
2022-09-02T16:28:51.540Z,99479.19
2022-09-02T16:32:14.451Z,99469.53
2022-09-02T16:35:22.565Z,99489.59
2022-09-02T16:38:28.025Z,99503.69
2022-09-02T16:41:35.471Z,99493.88
2022-09-02T16:44:41.617Z,99503.69
2022-09-02T16:47:46.868Z,99512.31
2022-09-02T16:50:52.432Z,99520.94
2022-09-02T16:53:58.247Z,99515.56
2022-09-02T16:57:06.294Z,99515.06
2022-09-02T17:00:12.603Z,99509.31
2022-09-02T17:03:18.034Z,99517.38
2022-09-02T17:06:23.425Z,99536.03
2022-09-02T17:09:28.404Z,99543.28
2022-09-02T17:12:38.526Z,99528.59
2022-09-02T17:15:47.488Z,99537.13
2022-09-02T17:18:53.729Z,99534.56
2022-09-02T17:21:59.043Z,99542.00
2022-09-02T17:25:04.842Z,99565.22
2022-09-02T17:28:11.737Z,99580.84
2022-09-02T17:31:21.353Z,99579.63
2022-09-02T17:34:26.871Z,99616.75
2022-09-02T17:37:35.121Z,99603.25
2022-09-02T17:40:57.528Z,99609.84
2022-09-02T17:44:04.224Z,99615.25
2022-09-02T17:47:11.474Z,99628.47
2022-09-02T17:50:18.069Z,99628.13
2022-09-02T17:53:23.753Z,99631.41
2022-09-02T17:56:36.334Z,99653.94
2022-09-02T17:59:59.240Z,99641.91
2022-09-02T18:03:25.618Z,99640.25
2022-09-02T18:06:33.976Z,99656.75
2022-09-02T18:09:40.375Z,99709.34
2022-09-02T18:12:46.044Z,60944.69
2022-09-02T18:15:57.677Z,60944.69
2022-09-02T18:20:03.930Z,60944.69
2022-09-02T18:24:14.733Z,60944.69
2022-09-02T18:28:26.294Z,60944.69
2022-09-02T18:32:42.076Z,60944.69
2022-09-02T18:36:26.944Z,60944.69
2022-09-02T18:40:37.729Z,60944.69
2022-09-02T18:44:01.114Z,60944.69
2022-09-02T18:48:09.522Z,60944.69
2022-09-02T18:52:14.441Z,60944.69
2022-09-02T18:55:20.236Z,60944.69
2022-09-02T18:58:34.363Z,60944.69
2022-09-02T19:01:43.871Z,60944.69
2022-09-02T19:04:50.930Z,60944.69
2022-09-02T19:08:33.179Z,60944.69
2022-09-02T19:11:47.229Z,60944.69
2022-09-02T19:14:52.733Z,60944.69
2022-09-02T19:18:03.965Z,60944.69
2022-09-02T19:21:19.081Z,60944.69
2022-09-02T19:24:34.353Z,60944.69
2022-09-02T19:27:43.281Z,60944.69
2022-09-02T19:30:50.986Z,60944.69
2022-09-02T19:34:04.833Z,60944.69
2022-09-02T19:37:15.555Z,60944.69
2022-09-02T19:40:26.376Z,60944.69
2022-09-02T19:43:32.022Z,60944.69
2022-09-02T19:47:30.682Z,60944.69
2022-09-02T19:50:13.888Z,60944.69
2022-09-02T19:53:30.275Z,60944.69
2022-09-02T19:56:36.126Z,60944.69
2022-09-02T19:59:41.397Z,60944.69
2022-09-02T20:02:46.888Z,60944.69
2022-09-02T20:05:52.887Z,60944.69
2022-09-02T20:08:59.716Z,60944.69
2022-09-02T20:12:06.360Z,60944.69
2022-09-02T20:15:11.873Z,60944.69
2022-09-02T20:18:22.372Z,60944.69
2022-09-02T20:21:28.534Z,60944.69
2022-09-02T20:24:35.918Z,60944.69
2022-09-02T20:27:48.528Z,60944.69
2022-09-02T20:30:58.759Z,60944.69
2022-09-02T20:34:14.129Z,60944.69
2022-09-02T20:37:26.688Z,60944.69
2022-09-02T20:40:37.845Z,60944.69
2022-09-02T20:43:52.985Z,60944.69
2022-09-02T20:47:24.335Z,60944.69
2022-09-02T20:50:36.502Z,60944.69
2022-09-02T20:53:51.048Z,60944.69
2022-09-02T20:57:05.792Z,99578.34
2022-09-02T21:00:12.276Z,99574.25
2022-09-02T21:03:17.995Z,99577.34
2022-09-02T21:06:26.859Z,99578.47
2022-09-02T21:09:38.613Z,99567.28
2022-09-02T21:12:46.880Z,99561.19
2022-09-02T21:15:54.978Z,99554.09
2022-09-02T21:19:12.317Z,99542.47
2022-09-02T21:22:21.261Z,99527.84
2022-09-02T21:25:29.636Z,99521.84
2022-09-02T21:28:39.771Z,99508.00
2022-09-02T21:31:49.213Z,99492.03
2022-09-02T21:34:56.302Z,99483.06
2022-09-02T21:38:03.744Z,99472.59
2022-09-02T21:41:15.085Z,99458.84
2022-09-02T21:44:31.546Z,99461.78
2022-09-02T21:47:39.773Z,99451.09
2022-09-02T21:50:49.359Z,99449.44
2022-09-02T21:54:02.049Z,99445.13
2022-09-02T21:57:34.376Z,99448.63
2022-09-02T22:00:45.257Z,99450.06
2022-09-02T22:03:51.933Z,99449.84
2022-09-02T22:07:01.357Z,99451.91
2022-09-02T22:10:13.329Z,99455.81
2022-09-02T22:13:19.162Z,99456.44
2022-09-02T22:16:39.387Z,99451.06
2022-09-02T22:19:45.189Z,99447.41
2022-09-02T22:22:53.473Z,99440.81
2022-09-02T22:26:08.369Z,99438.34
2022-09-02T22:29:18.218Z,99445.69
2022-09-02T22:32:26.385Z,99454.13
2022-09-02T22:35:34.464Z,99457.81
2022-09-02T22:38:44.300Z,99476.69
2022-09-02T22:41:56.707Z,99487.13
2022-09-02T22:45:22.493Z,99489.97
2022-09-02T22:48:52.937Z,99489.78
2022-09-02T22:52:21.635Z,99492.28
2022-09-02T22:55:31.404Z,99474.66
2022-09-02T22:58:47.644Z,99447.47
2022-09-02T23:01:58.397Z,99430.06
2022-09-02T23:05:38.061Z,99425.78
2022-09-02T23:08:43.819Z,99437.50
2022-09-02T23:11:54.023Z,99452.13
2022-09-02T23:15:08.942Z,99453.50
2022-09-02T23:18:21.694Z,99459.69
2022-09-02T23:21:37.279Z,99455.31
2022-09-02T23:24:46.519Z,99432.09
2022-09-02T23:27:54.511Z,99414.44
2022-09-02T23:31:05.393Z,99420.63
2022-09-02T23:34:18.390Z,99401.88
2022-09-02T23:37:32.505Z,99397.56
2022-09-02T23:40:41.604Z,99407.06
2022-09-02T23:43:46.919Z,99396.44
2022-09-02T23:46:57.508Z,99391.28
2022-09-02T23:50:07.798Z,99384.38
2022-09-02T23:53:20.701Z,99394.97
2022-09-02T23:56:33.985Z,99393.97
2022-09-02T23:59:48.451Z,99378.50
